createdAt,value
2018-03-29T10:55:32.333Z,15.00
2018-03-29T10:58:00.989Z,16.70
2018-03-29T11:00:29.965Z,17.30
2018-03-29T11:02:58.965Z,17.10
2018-03-29T11:07:57.726Z,16.00
2018-03-29T11:10:25.956Z,15.50
2018-03-29T11:12:54.228Z,16.00
2018-03-29T11:15:22.860Z,17.80
2018-03-29T11:20:22.291Z,20.90
2018-03-29T11:22:50.529Z,22.50
2018-03-29T11:25:19.896Z,23.60
2018-03-29T11:27:48.369Z,24.70
2018-03-29T11:30:17.004Z,25.20
2018-03-29T11:32:46.001Z,25.30
2018-03-29T11:35:14.277Z,25.00
2018-03-29T11:37:42.512Z,25.40
2018-03-29T11:40:10.740Z,25.50
2018-03-29T11:42:39.126Z,25.50
2018-03-29T11:45:07.361Z,25.70
2018-03-29T11:47:35.596Z,25.70
2018-03-29T11:50:05.339Z,26.00
2018-03-29T11:52:34.339Z,25.40
2018-03-29T11:55:02.972Z,24.20
2018-03-29T11:57:32.008Z,22.80
2018-03-29T12:00:00.239Z,21.70
2018-03-29T12:02:29.608Z,20.50
2018-03-29T12:04:58.701Z,19.40
2018-03-29T12:07:28.448Z,18.20
2018-03-29T12:09:56.689Z,17.10
2018-03-29T12:12:26.631Z,16.30
2018-03-29T12:22:24.508Z,12.40
2018-03-29T12:24:52.740Z,11.90
2018-03-29T12:27:26.088Z,11.90
2018-03-29T12:29:54.696Z,12.00
2018-03-29T12:32:22.925Z,12.40
2018-03-29T12:34:51.185Z,13.10
2018-03-29T12:37:20.917Z,13.60
2018-03-29T12:39:49.141Z,14.20
2018-03-29T12:42:17.611Z,14.40
2018-03-29T12:44:47.340Z,14.60
2018-03-29T12:47:16.330Z,14.80
2018-03-29T12:49:45.936Z,14.90
2018-03-29T12:52:14.174Z,15.00
2018-03-29T12:54:54.557Z,15.00
2018-03-29T12:57:34.672Z,15.20
2018-03-29T13:00:04.174Z,15.10
2018-03-29T13:02:32.400Z,15.30
2018-03-29T13:05:02.140Z,15.30
2018-03-29T13:07:31.559Z,15.40
2018-03-29T13:10:00.576Z,15.40
2018-03-29T13:12:29.589Z,15.10
2018-03-29T13:14:59.545Z,14.90
2018-03-29T13:17:28.900Z,15.00
2018-03-29T13:19:57.136Z,15.00
2018-03-29T13:22:25.398Z,15.00
2018-03-29T13:24:53.616Z,14.90
2018-03-29T13:27:22.237Z,14.70
2018-03-29T13:29:50.884Z,14.40
2018-03-29T13:32:19.506Z,14.00
2018-03-29T13:34:48.492Z,13.70
2018-03-29T13:37:17.030Z,13.30
2018-03-29T13:39:46.030Z,13.10
2018-03-29T13:42:14.244Z,13.10
2018-03-29T13:44:44.012Z,13.40
2018-03-29T13:47:12.236Z,13.60
2018-03-29T13:49:40.460Z,13.80
2018-03-29T13:52:08.724Z,13.70
2018-03-29T13:57:06.801Z,13.80
2018-03-29T13:59:35.369Z,13.90
2018-03-29T14:02:03.596Z,13.90
2018-03-29T14:04:31.830Z,14.00
2018-03-29T14:07:00.456Z,14.00
2018-03-29T14:09:29.824Z,14.20
2018-03-29T14:11:58.057Z,14.50
2018-03-29T14:14:26.317Z,14.60
2018-03-29T14:16:54.539Z,14.60
2018-03-29T14:19:23.533Z,14.70
2018-03-29T14:21:51.780Z,14.80
2018-03-29T14:24:20.005Z,14.70
2018-03-29T14:26:48.227Z,14.60
2018-03-29T14:29:17.995Z,14.50
2018-03-29T14:31:46.228Z,14.30
2018-03-29T14:34:14.448Z,14.20
2018-03-29T14:36:43.596Z,13.90
2018-03-29T14:39:12.589Z,13.80
2018-03-29T14:41:40.807Z,13.60
2018-03-29T14:46:39.066Z,13.50
2018-03-29T14:49:07.284Z,13.50
2018-03-29T14:54:05.388Z,13.70
2018-03-29T14:56:33.609Z,13.70
2018-03-29T14:59:01.866Z,13.70
2018-03-29T15:03:59.924Z,13.40
2018-03-29T15:06:30.079Z,13.30
2018-03-29T15:08:59.807Z,13.20
2018-03-29T15:11:28.791Z,13.20
2018-03-29T15:13:58.559Z,13.10
2018-03-29T15:16:27.160Z,13.10
2018-03-29T15:18:56.357Z,13.00
2018-03-29T15:21:24.616Z,12.90
2018-03-29T15:23:52.831Z,12.90
2018-03-29T15:26:21.060Z,13.00
2018-03-29T15:28:50.123Z,13.10
2018-03-29T15:31:18.748Z,13.20
2018-03-29T15:33:46.965Z,13.20
2018-03-29T15:36:16.464Z,13.20
2018-03-29T15:38:45.457Z,13.30
2018-03-29T15:41:13.676Z,13.30
2018-03-29T15:46:12.525Z,13.30
2018-03-29T15:48:41.521Z,13.30
2018-03-29T15:51:09.972Z,13.30
2018-03-29T15:53:39.700Z,13.30
2018-03-29T15:56:08.701Z,13.30
2018-03-29T15:58:37.220Z,13.30
2018-03-29T16:01:06.207Z,13.30
2018-03-29T16:03:34.433Z,13.30
2018-03-29T16:06:02.691Z,13.20
2018-03-29T16:08:30.921Z,13.20
2018-03-29T16:10:59.152Z,13.20
2018-03-29T16:13:29.193Z,13.10
2018-03-29T16:15:57.822Z,13.10
2018-03-29T16:18:26.808Z,13.10
2018-03-29T16:25:55.123Z,12.80
2018-03-29T16:28:23.384Z,12.80
2018-03-29T16:30:51.608Z,12.70
2018-03-29T16:33:20.628Z,12.80
2018-03-29T16:35:50.056Z,12.70
2018-03-29T16:38:19.796Z,12.70
2018-03-29T16:40:48.793Z,12.60
2018-03-29T16:43:17.065Z,12.60
2018-03-29T16:45:46.797Z,12.50
2018-03-29T16:48:15.024Z,12.60
2018-03-29T16:50:43.464Z,12.50
2018-03-29T16:55:41.136Z,12.40
2018-03-29T16:58:09.408Z,12.40
2018-03-29T17:00:37.636Z,12.40
2018-03-29T17:03:05.852Z,12.30
2018-03-29T17:05:35.630Z,12.30
2018-03-29T17:10:33.300Z,12.30
2018-03-29T17:13:01.578Z,12.20
2018-03-29T17:15:29.796Z,12.20
2018-03-29T17:17:58.023Z,12.10
2018-03-29T17:20:26.675Z,12.20
2018-03-29T17:22:55.672Z,12.10
2018-03-29T17:25:24.661Z,12.00
2018-03-29T17:27:52.928Z,12.00
2018-03-29T17:30:21.166Z,11.90
2018-03-29T17:32:50.162Z,11.80
2018-03-29T17:35:18.723Z,11.80
2018-03-29T17:37:48.452Z,11.80
2018-03-29T17:40:16.684Z,11.70
2018-03-29T17:42:48.268Z,11.60
2018-03-29T17:47:45.943Z,11.50
2018-03-29T17:50:14.388Z,11.40
2018-03-29T17:52:43.380Z,11.30
2018-03-29T17:55:11.603Z,11.20
2018-03-29T18:00:09.728Z,11.10
2018-03-29T18:02:38.357Z,11.00
2018-03-29T18:05:07.988Z,10.90
2018-03-29T18:07:37.728Z,10.80
2018-03-29T18:10:06.724Z,10.80
2018-03-29T18:12:35.396Z,10.70
2018-03-29T18:15:04.406Z,10.60
2018-03-29T18:17:32.639Z,10.60
2018-03-29T18:20:04.053Z,10.50
2018-03-29T18:25:02.536Z,10.40
2018-03-29T18:27:31.014Z,10.30
2018-03-29T18:29:59.253Z,10.30
2018-03-29T18:32:29.001Z,10.30
2018-03-29T18:34:57.574Z,10.20
2018-03-29T18:37:25.812Z,10.20
2018-03-29T18:39:54.129Z,10.20
2018-03-29T18:42:22.396Z,10.20
2018-03-29T18:44:51.398Z,10.10
2018-03-29T18:47:19.645Z,10.00
2018-03-29T18:49:48.289Z,10.00
2018-03-29T18:52:16.524Z,9.90
2018-03-29T18:54:44.761Z,9.80
2018-03-29T18:57:13.504Z,9.80
2018-03-29T18:59:42.128Z,9.70
2018-03-29T19:02:10.363Z,9.70
2018-03-29T19:04:39.027Z,9.60
2018-03-29T19:07:07.261Z,9.60
2018-03-29T19:09:35.500Z,9.60
2018-03-29T19:12:04.045Z,9.50
2018-03-29T19:14:33.031Z,9.50
2018-03-29T19:17:01.264Z,9.40
2018-03-29T19:19:29.560Z,9.40
2018-03-29T19:21:57.788Z,9.30
2018-03-29T19:24:26.020Z,9.30
2018-03-29T19:26:54.287Z,9.30
2018-03-29T19:29:22.532Z,9.20
2018-03-29T19:34:20.501Z,9.20
2018-03-29T19:36:48.728Z,9.10
2018-03-29T19:39:18.103Z,9.10
2018-03-29T19:41:47.159Z,9.10
2018-03-29T19:44:16.152Z,9.10
2018-03-29T19:46:45.149Z,9.10
2018-03-29T19:49:13.412Z,9.00
2018-03-29T19:51:42.408Z,9.00
2018-03-29T19:54:10.649Z,8.90
2018-03-29T19:56:39.308Z,8.90
2018-03-29T19:59:07.536Z,8.90
2018-03-29T20:01:35.770Z,8.90
2018-03-29T20:09:03.356Z,8.90
2018-03-29T20:11:32.494Z,8.90
2018-03-29T20:14:01.481Z,9.00
2018-03-29T20:16:29.709Z,9.10
2018-03-29T20:18:59.575Z,9.10
2018-03-29T20:21:27.804Z,9.20
2018-03-29T20:23:56.425Z,9.20
2018-03-29T20:26:24.684Z,9.20
2018-03-29T20:28:55.125Z,9.20
2018-03-29T20:31:23.348Z,9.20
2018-03-29T20:33:52.992Z,9.20
2018-03-29T20:38:51.068Z,9.20
2018-03-29T20:41:19.349Z,9.20
2018-03-29T20:43:47.572Z,9.20
2018-03-29T20:46:15.800Z,9.20
2018-03-29T20:48:45.188Z,9.20
2018-03-29T20:51:13.412Z,9.20
2018-03-29T20:56:11.820Z,9.10
2018-03-29T20:58:40.048Z,9.00
2018-03-29T21:01:08.264Z,9.00
2018-03-29T21:03:36.547Z,9.00
2018-03-29T21:06:04.768Z,9.00
2018-03-29T21:08:32.988Z,9.00
2018-03-29T21:13:30.704Z,8.90
2018-03-29T21:15:59.448Z,8.90
2018-03-29T21:18:28.851Z,8.80
2018-03-29T21:20:58.584Z,8.80
2018-03-29T21:23:27.618Z,8.70
2018-03-29T21:25:55.936Z,8.80
2018-03-29T21:28:25.301Z,8.80
2018-03-29T21:30:53.545Z,8.70
2018-03-29T21:33:21.968Z,8.80
2018-03-29T21:35:50.196Z,8.70
2018-03-29T21:38:19.190Z,8.70
2018-03-29T21:40:47.968Z,8.70
2018-03-29T21:43:17.701Z,8.70
2018-03-29T21:45:46.706Z,8.70
2018-03-29T21:48:14.982Z,8.70
2018-03-29T21:50:43.974Z,8.60
2018-03-29T21:53:12.196Z,8.60
2018-03-29T21:55:40.660Z,8.60
2018-03-29T21:58:10.393Z,8.60
2018-03-29T22:00:39.386Z,8.60
2018-03-29T22:03:09.180Z,8.60
2018-03-29T22:05:38.496Z,8.60
2018-03-29T22:08:06.724Z,8.60
2018-03-29T22:10:34.983Z,8.60
2018-03-29T22:13:03.599Z,8.60
2018-03-29T22:15:31.819Z,8.60
2018-03-29T22:18:00.229Z,8.60
2018-03-29T22:20:29.592Z,8.70
2018-03-29T22:22:58.216Z,8.70
2018-03-29T22:25:28.182Z,8.60
2018-03-29T22:30:25.856Z,8.70
2018-03-29T22:32:54.616Z,8.70
2018-03-29T22:35:22.848Z,8.70
2018-03-29T22:37:51.835Z,8.70
2018-03-29T22:40:20.864Z,8.70
2018-03-29T22:42:49.084Z,8.70
2018-03-29T22:45:17.312Z,8.60
2018-03-29T22:47:46.610Z,8.60
2018-03-29T22:50:14.832Z,8.60
2018-03-29T22:52:43.061Z,8.60
2018-03-29T22:55:11.348Z,8.60
2018-03-29T22:57:39.700Z,8.60
2018-03-29T23:00:07.921Z,8.60
2018-03-29T23:02:37.211Z,8.50
2018-03-29T23:05:06.204Z,8.50
2018-03-29T23:10:04.472Z,8.50
2018-03-29T23:12:33.464Z,8.50
2018-03-29T23:15:01.697Z,8.60
2018-03-29T23:17:31.011Z,8.50
2018-03-29T23:20:00.000Z,8.50
2018-03-29T23:22:28.223Z,8.50
2018-03-29T23:27:26.344Z,8.50
2018-03-29T23:29:54.572Z,8.50
2018-03-29T23:32:24.715Z,8.50
2018-03-29T23:37:28.709Z,8.50
2018-03-29T23:39:56.940Z,8.50
2018-03-29T23:42:25.168Z,8.40
2018-03-29T23:44:53.515Z,8.40
2018-03-29T23:47:21.750Z,8.40
2018-03-29T23:52:19.580Z,8.40
2018-03-29T23:54:47.796Z,8.50
2018-03-29T23:57:16.020Z,8.50
2018-03-29T23:59:44.276Z,8.40
